createdAt,value
2019-01-26T00:01:54.026Z,95418.24
2019-01-26T00:04:23.564Z,95416.05
2019-01-26T00:06:53.164Z,95420.17
2019-01-26T00:09:22.723Z,95425.27
2019-01-26T00:11:53.170Z,95417.87
2019-01-26T00:14:22.733Z,95411.95
2019-01-26T00:16:52.297Z,95416.83
2019-01-26T00:19:22.114Z,95414.62
2019-01-26T00:21:51.673Z,95411.47
2019-01-26T00:24:21.191Z,95409.19
2019-01-26T00:26:50.770Z,95408.71
2019-01-26T00:29:20.879Z,95406.00
2019-01-26T00:31:50.465Z,95410.84
2019-01-26T00:34:20.021Z,95403.52
2019-01-26T00:36:49.554Z,95396.00
2019-01-26T00:39:19.060Z,95399.88
2019-01-26T00:41:48.595Z,95399.98
2019-01-26T00:44:18.096Z,95409.67
2019-01-26T00:46:47.905Z,95394.55
2019-01-26T00:49:17.524Z,95397.98
2019-01-26T00:51:47.137Z,95396.63
2019-01-26T00:54:16.728Z,95390.39
2019-01-26T00:56:46.328Z,95397.36
2019-01-26T00:59:15.886Z,95394.84
2019-01-26T01:01:45.895Z,95394.22
2019-01-26T01:04:15.480Z,95386.02
2019-01-26T01:06:45.130Z,95377.77
2019-01-26T01:09:14.971Z,95369.19
2019-01-26T01:11:44.485Z,95354.38
2019-01-26T01:14:14.143Z,95349.17
2019-01-26T01:16:45.665Z,95348.65
2019-01-26T01:19:15.075Z,95336.64
2019-01-26T01:21:44.722Z,95337.20
2019-01-26T01:24:14.316Z,95343.69
2019-01-26T01:26:45.532Z,95327.13
2019-01-26T01:29:15.099Z,95328.70
2019-01-26T01:31:44.679Z,95324.67
2019-01-26T01:34:15.622Z,95333.40
2019-01-26T01:36:45.521Z,95331.25
2019-01-26T01:39:15.091Z,95330.00
2019-01-26T01:41:44.607Z,95337.28
2019-01-26T01:44:14.092Z,95323.95
2019-01-26T01:46:43.604Z,95315.77
2019-01-26T01:49:13.223Z,95307.91
2019-01-26T01:51:42.764Z,95309.02
2019-01-26T01:54:12.345Z,95296.77
2019-01-26T01:56:41.923Z,95304.00
2019-01-26T01:59:11.516Z,95304.99
2019-01-26T02:01:41.013Z,95308.07
2019-01-26T02:04:10.540Z,95305.19
2019-01-26T02:06:40.057Z,95294.72
2019-01-26T02:09:10.235Z,95291.84
2019-01-26T02:11:39.801Z,95298.32
2019-01-26T02:14:09.423Z,95293.96
2019-01-26T02:16:38.990Z,95303.39
2019-01-26T02:19:08.652Z,95294.29
2019-01-26T02:21:38.186Z,95286.23
2019-01-26T02:24:07.748Z,95284.23
2019-01-26T02:26:37.338Z,95272.70
2019-01-26T02:29:06.877Z,95262.72
2019-01-26T02:31:36.426Z,95264.45
2019-01-26T02:34:06.038Z,95258.02
2019-01-26T02:36:35.568Z,95261.52
2019-01-26T02:39:07.903Z,95252.58
2019-01-26T02:41:38.090Z,95242.16
2019-01-26T02:44:09.757Z,95238.30
2019-01-26T02:46:39.345Z,95238.11
2019-01-26T02:49:08.894Z,95233.44
2019-01-26T02:51:38.567Z,95232.19
2019-01-26T02:54:08.051Z,95218.78
2019-01-26T02:56:37.537Z,95225.81
2019-01-26T02:59:07.046Z,95224.93
2019-01-26T03:01:36.556Z,95217.33
2019-01-26T03:04:06.369Z,95208.57
2019-01-26T03:06:35.911Z,95215.87
2019-01-26T03:09:08.872Z,95210.70
2019-01-26T03:11:38.530Z,95212.02
2019-01-26T03:14:08.548Z,95218.20
2019-01-26T03:16:38.037Z,95204.43
2019-01-26T03:19:07.619Z,95201.52
2019-01-26T03:21:42.780Z,95194.03
2019-01-26T03:24:12.285Z,95196.66
2019-01-26T03:26:41.852Z,95195.09
2019-01-26T03:29:11.347Z,95195.30
2019-01-26T03:31:40.922Z,95196.69
2019-01-26T03:34:10.403Z,95197.24
2019-01-26T03:36:39.973Z,95202.41
2019-01-26T03:39:09.748Z,95190.97
2019-01-26T03:41:39.304Z,95198.29
2019-01-26T03:44:08.996Z,95186.88
2019-01-26T03:46:39.285Z,95169.54
2019-01-26T03:49:08.943Z,95177.02
2019-01-26T03:51:38.509Z,95182.06
2019-01-26T03:54:08.112Z,95183.22
2019-01-26T03:56:37.704Z,95187.34
2019-01-26T03:59:07.366Z,95179.57
2019-01-26T04:01:37.037Z,95178.86
2019-01-26T04:04:06.529Z,95184.25
2019-01-26T04:06:36.089Z,95180.67
2019-01-26T04:09:08.499Z,95175.52
2019-01-26T04:11:38.005Z,95178.67
2019-01-26T04:14:07.644Z,95166.24
2019-01-26T04:16:37.112Z,95160.98
2019-01-26T04:19:07.246Z,95151.33
2019-01-26T04:21:37.379Z,95146.91
2019-01-26T04:24:07.060Z,95151.67
2019-01-26T04:26:36.616Z,95147.41
2019-01-26T04:29:06.212Z,95150.84
2019-01-26T04:31:35.753Z,95149.94
2019-01-26T04:34:05.358Z,95143.56
2019-01-26T04:36:34.992Z,95141.34
2019-01-26T04:39:06.965Z,95140.43
2019-01-26T04:41:36.418Z,95146.41
2019-01-26T04:44:06.030Z,95141.97
2019-01-26T04:46:35.479Z,95141.16
2019-01-26T04:49:05.024Z,95132.77
2019-01-26T04:51:34.513Z,95134.38
2019-01-26T04:54:04.115Z,95138.13
2019-01-26T04:56:33.610Z,95151.75
2019-01-26T04:59:03.081Z,95129.22
2019-01-26T05:01:32.636Z,95128.41
2019-01-26T05:04:02.127Z,95126.70
2019-01-26T05:06:31.618Z,95133.55
2019-01-26T05:09:01.109Z,95130.12
2019-01-26T05:11:30.562Z,95116.98
2019-01-26T05:14:00.044Z,95115.05
2019-01-26T05:16:29.492Z,95117.18
2019-01-26T05:18:59.005Z,95124.41
2019-01-26T05:21:28.492Z,95114.94
2019-01-26T05:23:58.000Z,95105.66
2019-01-26T05:26:27.517Z,95114.45
2019-01-26T05:28:56.989Z,95109.67
2019-01-26T05:31:26.440Z,95103.72
2019-01-26T05:33:55.945Z,95104.64
2019-01-26T05:36:25.386Z,95112.88
2019-01-26T05:38:54.855Z,95099.76
2019-01-26T05:41:24.323Z,95105.94
2019-01-26T05:43:53.788Z,95112.67
2019-01-26T05:46:23.262Z,95101.20
2019-01-26T05:48:53.674Z,95104.84
2019-01-26T05:51:23.144Z,95091.11
2019-01-26T05:53:52.644Z,95096.78
2019-01-26T05:56:22.087Z,95100.10
2019-01-26T05:58:51.532Z,95097.70
2019-01-26T06:01:21.016Z,95096.02
2019-01-26T06:03:50.493Z,95095.69
2019-01-26T06:06:19.966Z,95094.80
2019-01-26T06:08:49.430Z,95097.92
2019-01-26T06:11:18.905Z,95100.72
2019-01-26T06:13:48.348Z,95103.97
2019-01-26T06:16:17.840Z,95098.01
2019-01-26T06:18:47.288Z,95095.59
2019-01-26T06:21:16.756Z,95088.83
2019-01-26T06:23:46.865Z,95095.00
2019-01-26T06:26:16.390Z,95090.86
2019-01-26T06:28:45.894Z,95089.05
2019-01-26T06:31:15.347Z,95092.67
2019-01-26T06:33:44.838Z,95080.67
2019-01-26T06:36:14.312Z,95088.62
2019-01-26T06:38:43.808Z,95090.97
2019-01-26T06:41:13.351Z,95085.40
2019-01-26T06:43:42.841Z,95076.63
2019-01-26T06:46:12.387Z,95097.12
2019-01-26T06:48:41.881Z,95078.72
2019-01-26T06:51:11.353Z,95080.23
2019-01-26T06:53:40.850Z,95085.78
2019-01-26T06:56:10.349Z,95081.45
2019-01-26T06:58:39.843Z,95086.49
2019-01-26T07:01:09.269Z,95095.30
2019-01-26T07:03:38.764Z,95094.59
2019-01-26T07:06:12.322Z,95102.36
2019-01-26T07:08:41.836Z,95102.95
2019-01-26T07:11:11.305Z,95094.78
2019-01-26T07:13:40.762Z,95099.00
2019-01-26T07:16:10.316Z,95102.63
2019-01-26T07:18:39.814Z,95107.28
2019-01-26T07:21:09.357Z,95094.02
2019-01-26T07:23:38.889Z,95091.60
2019-01-26T07:26:08.369Z,95088.08
2019-01-26T07:28:37.815Z,95091.38
2019-01-26T07:31:07.355Z,95095.64
2019-01-26T07:33:36.807Z,95100.27
2019-01-26T07:36:06.368Z,95096.50
2019-01-26T07:38:35.836Z,95096.62
2019-01-26T07:41:05.357Z,95100.27
2019-01-26T07:43:34.839Z,95102.27
2019-01-26T07:46:04.588Z,95105.30
2019-01-26T07:48:34.091Z,95102.27
2019-01-26T07:51:03.552Z,95106.97
2019-01-26T07:53:33.037Z,95108.00
2019-01-26T07:56:02.510Z,95104.32
2019-01-26T07:58:31.959Z,95115.34
2019-01-26T08:01:01.446Z,95100.87
2019-01-26T08:03:30.891Z,95106.45
2019-01-26T08:06:00.418Z,95099.66
2019-01-26T08:08:29.848Z,95106.47
2019-01-26T08:10:59.345Z,95102.59
2019-01-26T08:13:28.804Z,95105.61
2019-01-26T08:15:58.291Z,95108.65
2019-01-26T08:18:27.859Z,95111.98
2019-01-26T08:20:57.314Z,95104.39
2019-01-26T08:23:26.823Z,95094.97
2019-01-26T08:25:56.333Z,95100.30
2019-01-26T08:28:25.829Z,95097.47
2019-01-26T08:30:55.315Z,95100.42
2019-01-26T08:33:24.788Z,95102.30
2019-01-26T08:35:54.299Z,95095.28
2019-01-26T08:38:23.822Z,95106.09
2019-01-26T08:40:53.298Z,95107.07
2019-01-26T08:43:23.167Z,95102.44
2019-01-26T08:45:52.622Z,95107.80
2019-01-26T08:48:22.184Z,95107.42
2019-01-26T08:50:51.635Z,95114.87
2019-01-26T08:53:21.092Z,95102.84
2019-01-26T08:55:50.583Z,95111.24
2019-01-26T08:58:20.107Z,95108.41
2019-01-26T09:00:49.673Z,95111.45
2019-01-26T09:03:23.487Z,95114.09
2019-01-26T09:05:52.772Z,95111.68
2019-01-26T09:08:22.323Z,95111.42
2019-01-26T09:10:51.783Z,95114.31
2019-01-26T09:13:21.454Z,95111.33
2019-01-26T09:15:50.911Z,95109.42
2019-01-26T09:18:20.544Z,95120.30
2019-01-26T09:20:50.147Z,95110.14
2019-01-26T09:23:19.748Z,95108.36
2019-01-26T09:25:49.267Z,95110.77
2019-01-26T09:28:19.380Z,95106.50
2019-01-26T09:30:48.926Z,95115.72
2019-01-26T09:33:18.515Z,95110.64
2019-01-26T09:35:48.142Z,95112.42
2019-01-26T09:38:17.744Z,95116.19
2019-01-26T09:40:48.167Z,95117.51
2019-01-26T09:43:17.844Z,95120.23
2019-01-26T09:45:47.311Z,95113.48
2019-01-26T09:48:17.973Z,95109.94
2019-01-26T09:50:47.460Z,95105.05
2019-01-26T09:53:17.075Z,95113.59
2019-01-26T09:55:46.864Z,95113.57
2019-01-26T09:58:16.488Z,95112.21
2019-01-26T10:00:46.238Z,95126.17
2019-01-26T10:03:16.015Z,95114.58
2019-01-26T10:05:45.642Z,95131.92
2019-01-26T10:08:15.360Z,95117.66
2019-01-26T10:10:44.988Z,95128.25
2019-01-26T10:13:14.639Z,95126.34
2019-01-26T10:15:44.445Z,95129.06
2019-01-26T10:18:14.330Z,95123.34
2019-01-26T10:20:44.718Z,95120.27
2019-01-26T10:23:15.137Z,95131.98
2019-01-26T10:25:48.826Z,95139.72
2019-01-26T10:28:16.142Z,95136.75
2019-01-26T10:30:47.536Z,95129.41
2019-01-26T10:33:17.137Z,95124.58
2019-01-26T10:35:49.060Z,95124.09
2019-01-26T10:38:18.799Z,95116.03
2019-01-26T10:40:53.627Z,95106.30
2019-01-26T10:43:34.123Z,95095.86
2019-01-26T10:46:03.581Z,95096.95
2019-01-26T10:48:33.338Z,95094.13
2019-01-26T10:51:02.933Z,95089.36
2019-01-26T10:53:32.438Z,95082.49
2019-01-26T10:56:02.000Z,95080.48
2019-01-26T10:58:31.759Z,95082.44
2019-01-26T11:01:01.432Z,95085.84
2019-01-26T11:03:31.254Z,95080.76
2019-01-26T11:06:01.050Z,95071.42
2019-01-26T11:08:30.846Z,95076.89
2019-01-26T11:11:00.820Z,95062.24
2019-01-26T11:13:30.729Z,95068.69
2019-01-26T11:16:01.341Z,95057.80
2019-01-26T11:18:30.970Z,95068.05
2019-01-26T11:21:00.932Z,95060.31
2019-01-26T11:23:32.824Z,95058.27
2019-01-26T11:26:02.779Z,95055.75
2019-01-26T11:28:32.399Z,95051.73
2019-01-26T11:31:02.019Z,95047.04
2019-01-26T11:33:31.756Z,95047.04
2019-01-26T11:36:01.858Z,95045.07
2019-01-26T11:38:31.902Z,95038.24
2019-01-26T11:41:01.879Z,95044.19
2019-01-26T11:43:31.493Z,95028.41
2019-01-26T11:46:11.946Z,95026.78
2019-01-26T11:48:43.603Z,95025.38
2019-01-26T11:51:15.654Z,95013.25
2019-01-26T11:53:45.363Z,95012.77
2019-01-26T11:56:25.773Z,95006.89
2019-01-26T11:58:55.853Z,95009.44
2019-01-26T12:01:40.679Z,94995.92
2019-01-26T12:04:17.560Z,95005.07
2019-01-26T12:06:48.858Z,94995.39
2019-01-26T12:09:19.294Z,94993.76
2019-01-26T12:11:49.379Z,94995.80
2019-01-26T12:14:19.644Z,94987.86
2019-01-26T12:16:49.981Z,94980.68
2019-01-26T12:19:22.414Z,94985.77
2019-01-26T12:21:53.351Z,94967.83
2019-01-26T12:24:23.699Z,94976.03
2019-01-26T12:26:53.849Z,94987.36
2019-01-26T12:29:23.888Z,94970.48
2019-01-26T12:31:54.326Z,94970.75
2019-01-26T12:34:24.368Z,94960.72
2019-01-26T12:36:54.440Z,94954.75
2019-01-26T12:39:24.939Z,94955.42
2019-01-26T12:41:55.338Z,94956.87
2019-01-26T12:44:25.649Z,94949.09
2019-01-26T12:46:56.017Z,94956.73
2019-01-26T12:49:29.702Z,94946.85
2019-01-26T12:51:58.957Z,94937.02
2019-01-26T12:54:29.082Z,94933.95
2019-01-26T12:56:59.254Z,94942.79
2019-01-26T12:59:29.370Z,94933.20
2019-01-26T13:01:59.991Z,94948.44
2019-01-26T13:04:30.041Z,94933.97
2019-01-26T13:07:00.417Z,94938.63
2019-01-26T13:09:31.408Z,94937.28
2019-01-26T13:12:02.301Z,94909.13
2019-01-26T13:14:32.969Z,94938.16
2019-01-26T13:17:03.660Z,94930.67
2019-01-26T13:19:36.898Z,94924.44
2019-01-26T13:22:06.851Z,94921.05
2019-01-26T13:24:38.317Z,94924.69
2019-01-26T13:27:08.480Z,94936.42
2019-01-26T13:29:38.612Z,94932.99
2019-01-26T13:32:10.819Z,94922.34
2019-01-26T13:34:41.367Z,94933.63
2019-01-26T13:37:11.745Z,94930.53
2019-01-26T13:39:43.741Z,94924.95
2019-01-26T13:42:14.421Z,94927.66
2019-01-26T13:44:45.012Z,94929.61
2019-01-26T13:47:16.284Z,94931.86
2019-01-26T13:49:47.055Z,94933.45
2019-01-26T13:52:17.323Z,94946.63
2019-01-26T13:54:47.443Z,94935.39
2019-01-26T13:57:17.234Z,94934.77
2019-01-26T13:59:50.843Z,94932.37
2019-01-26T14:02:20.841Z,94933.22
2019-01-26T14:04:50.826Z,94945.31
2019-01-26T14:07:21.145Z,94950.03
2019-01-26T14:09:51.608Z,94947.69
2019-01-26T14:12:22.286Z,94944.38
2019-01-26T14:14:52.052Z,94947.57
2019-01-26T14:17:22.234Z,94942.01
2019-01-26T14:19:52.243Z,94944.74
2019-01-26T14:22:22.339Z,94947.95
2019-01-26T14:24:52.390Z,94956.95
2019-01-26T14:27:24.422Z,94951.59
2019-01-26T14:29:55.084Z,94943.54
2019-01-26T14:32:25.802Z,94932.75
2019-01-26T14:34:56.841Z,94930.73
2019-01-26T14:37:27.479Z,94938.86
2019-01-26T14:39:57.799Z,94938.10
2019-01-26T14:42:28.391Z,94930.16
2019-01-26T14:44:58.890Z,94929.47
2019-01-26T14:47:29.274Z,94935.09
2019-01-26T14:49:59.251Z,94932.63
2019-01-26T14:52:29.806Z,94932.27
2019-01-26T14:54:59.657Z,94929.41
2019-01-26T14:57:30.305Z,94934.70
2019-01-26T15:00:00.219Z,94933.65
2019-01-26T15:02:30.584Z,94937.47
2019-01-26T15:05:02.521Z,94923.37
2019-01-26T15:07:32.683Z,94920.84
2019-01-26T15:10:03.045Z,94921.98
2019-01-26T15:12:33.628Z,94925.64
2019-01-26T15:15:03.978Z,94917.69
2019-01-26T15:17:34.417Z,94908.75
2019-01-26T15:20:08.591Z,94917.33
2019-01-26T15:22:38.609Z,94903.20
2019-01-26T15:25:10.549Z,94894.27
2019-01-26T15:27:40.994Z,94906.89
2019-01-26T15:30:18.566Z,94893.88
2019-01-26T15:32:48.717Z,94892.80
2019-01-26T15:35:19.364Z,94901.13
2019-01-26T15:37:50.152Z,94903.63
2019-01-26T15:40:21.330Z,94893.16
2019-01-26T15:42:52.381Z,94896.26
2019-01-26T15:45:29.391Z,94888.83
2019-01-26T15:47:59.710Z,94895.14
2019-01-26T15:50:30.569Z,94894.63
2019-01-26T15:53:01.037Z,94893.13
2019-01-26T15:55:31.934Z,94882.67
2019-01-26T15:58:02.481Z,94876.72
2019-01-26T16:00:42.521Z,94888.20
2019-01-26T16:03:13.157Z,94878.80
2019-01-26T16:05:43.636Z,94872.63
2019-01-26T16:08:13.923Z,94877.53
2019-01-26T16:10:43.839Z,94875.97
2019-01-26T16:13:14.136Z,94879.48
2019-01-26T16:15:44.322Z,94873.63
2019-01-26T16:18:15.399Z,94877.41
2019-01-26T16:20:46.056Z,94869.00
2019-01-26T16:23:16.626Z,94869.18
2019-01-26T16:25:46.660Z,94870.74
2019-01-26T16:28:16.920Z,94878.73
2019-01-26T16:30:47.239Z,94880.36
2019-01-26T16:33:17.547Z,94869.96
2019-01-26T16:35:48.514Z,94871.28
2019-01-26T16:38:19.382Z,94873.56
2019-01-26T16:40:49.681Z,94860.08
2019-01-26T16:43:20.371Z,94862.59
2019-01-26T16:45:51.222Z,94859.48
2019-01-26T16:48:22.303Z,94868.34
2019-01-26T16:50:53.528Z,94862.98
2019-01-26T16:53:24.066Z,94855.12
2019-01-26T16:55:54.999Z,94851.84
2019-01-26T16:58:25.871Z,94858.24
2019-01-26T17:00:56.656Z,94853.73
2019-01-26T17:03:27.611Z,94849.14
2019-01-26T17:05:58.086Z,94851.78
2019-01-26T17:08:28.599Z,94853.34
2019-01-26T17:10:58.989Z,94842.20
2019-01-26T17:13:29.631Z,94841.78
2019-01-26T17:16:01.268Z,94847.55
2019-01-26T17:18:31.593Z,94840.19
2019-01-26T17:21:02.929Z,94835.47
2019-01-26T17:23:33.553Z,94833.63
2019-01-26T17:26:04.288Z,94827.59
2019-01-26T17:28:34.282Z,94829.97
2019-01-26T17:31:04.378Z,94827.20
2019-01-26T17:33:34.551Z,94828.41
2019-01-26T17:36:04.666Z,94821.05
2019-01-26T17:38:35.302Z,94817.59
2019-01-26T17:41:05.775Z,94812.13
2019-01-26T17:43:36.322Z,94807.53
2019-01-26T17:46:07.096Z,94805.36
2019-01-26T17:48:37.968Z,94808.73
2019-01-26T17:51:08.707Z,94804.31
2019-01-26T17:53:39.665Z,94810.92
2019-01-26T17:56:10.603Z,94803.74
2019-01-26T17:58:41.628Z,94797.91
2019-01-26T18:01:12.852Z,94797.33
2019-01-26T18:03:43.768Z,94787.24
2019-01-26T18:06:14.191Z,94790.16
2019-01-26T18:08:45.044Z,94787.70
2019-01-26T18:11:15.533Z,94784.03
2019-01-26T18:13:46.264Z,94779.70
2019-01-26T18:16:17.106Z,94783.41
2019-01-26T18:18:48.318Z,94782.95
2019-01-26T18:21:19.938Z,94778.63
2019-01-26T18:23:51.125Z,94776.22
2019-01-26T18:26:21.972Z,94775.41
2019-01-26T18:28:53.301Z,94775.53
2019-01-26T18:31:24.231Z,94780.00
2019-01-26T18:33:56.393Z,94778.39
2019-01-26T18:36:27.022Z,94774.66
2019-01-26T18:38:57.469Z,94770.52
2019-01-26T18:41:28.032Z,94771.02
2019-01-26T18:43:59.353Z,94779.25
2019-01-26T18:46:29.793Z,94754.41
2019-01-26T18:49:00.533Z,94755.38
2019-01-26T18:51:32.025Z,94765.09
2019-01-26T18:54:03.192Z,94755.02
2019-01-26T18:56:33.947Z,94752.69
2019-01-26T18:59:04.558Z,94747.80
2019-01-26T19:01:35.638Z,94748.84
2019-01-26T19:04:10.234Z,94747.47
2019-01-26T19:06:41.706Z,94749.79
2019-01-26T19:09:13.396Z,94755.40
2019-01-26T19:11:45.039Z,94743.56
2019-01-26T19:14:16.546Z,94743.50
2019-01-26T19:16:48.470Z,94736.38
2019-01-26T19:19:19.407Z,94732.36
2019-01-26T19:21:50.802Z,94726.23
2019-01-26T19:24:23.044Z,94740.11
2019-01-26T19:26:54.469Z,94722.73
2019-01-26T19:29:26.465Z,94723.24
2019-01-26T19:31:58.500Z,94727.70
2019-01-26T19:34:29.996Z,94721.27
2019-01-26T19:37:02.082Z,94713.07
2019-01-26T19:39:34.132Z,94710.19
2019-01-26T19:42:05.959Z,94715.74
2019-01-26T19:44:37.723Z,94692.89
2019-01-26T19:47:09.800Z,94698.13
2019-01-26T19:49:42.388Z,94698.23
2019-01-26T19:52:14.421Z,94697.70
2019-01-26T19:54:46.160Z,94695.80
2019-01-26T19:57:17.681Z,94695.43
2019-01-26T19:59:49.749Z,94692.14
2019-01-26T20:02:21.620Z,94690.14
2019-01-26T20:04:53.064Z,94687.73
2019-01-26T20:07:24.965Z,94685.09
2019-01-26T20:09:57.178Z,94681.27
2019-01-26T20:12:28.594Z,94676.84
2019-01-26T20:14:59.875Z,94684.47
2019-01-26T20:17:31.711Z,94679.00
2019-01-26T20:20:03.901Z,94669.19
2019-01-26T20:22:35.919Z,94665.70
2019-01-26T20:25:08.641Z,94678.75
2019-01-26T20:27:41.160Z,94669.48
2019-01-26T20:30:21.768Z,94665.84
2019-01-26T20:32:53.985Z,94662.82
2019-01-26T20:35:26.056Z,94658.61
2019-01-26T20:37:58.596Z,94657.61
2019-01-26T20:40:31.028Z,94666.67
2019-01-26T20:43:03.070Z,94648.36
2019-01-26T20:45:36.554Z,94650.58
2019-01-26T20:48:08.325Z,94646.37
2019-01-26T20:50:40.486Z,94642.45
2019-01-26T20:53:12.757Z,94638.98
2019-01-26T20:55:44.825Z,94645.98
2019-01-26T20:58:15.831Z,94641.13
2019-01-26T21:00:47.340Z,94632.85
2019-01-26T21:03:18.462Z,94634.53
2019-01-26T21:05:50.238Z,94635.34
2019-01-26T21:08:21.776Z,94626.30
2019-01-26T21:10:53.630Z,94633.09
2019-01-26T21:13:25.092Z,94624.04
2019-01-26T21:15:56.946Z,94626.41
2019-01-26T21:18:28.510Z,94622.33
2019-01-26T21:20:59.524Z,94621.47
2019-01-26T21:23:30.899Z,94624.86
2019-01-26T21:26:02.131Z,94623.55
2019-01-26T21:28:32.969Z,94604.30
2019-01-26T21:31:03.807Z,94607.81
2019-01-26T21:33:35.189Z,94599.02
2019-01-26T21:36:06.414Z,94599.08
2019-01-26T21:38:36.916Z,94595.41
2019-01-26T21:41:07.397Z,94592.15
2019-01-26T21:43:37.640Z,94587.13
2019-01-26T21:46:08.634Z,94585.73
2019-01-26T21:48:39.241Z,94577.00
2019-01-26T21:51:09.916Z,94581.98
2019-01-26T21:53:40.495Z,94579.21
2019-01-26T21:56:11.059Z,94577.27
2019-01-26T21:58:41.905Z,94573.55
2019-01-26T22:01:12.830Z,94574.81
2019-01-26T22:03:43.470Z,94571.61
2019-01-26T22:06:13.959Z,94572.47
2019-01-26T22:08:44.361Z,94563.50
2019-01-26T22:11:15.153Z,94561.85
2019-01-26T22:13:45.959Z,94553.50
2019-01-26T22:16:16.478Z,94546.77
2019-01-26T22:18:47.299Z,94556.06
2019-01-26T22:21:17.482Z,94548.84
2019-01-26T22:23:48.032Z,94540.92
2019-01-26T22:26:18.362Z,94539.97
2019-01-26T22:28:49.049Z,94537.15
2019-01-26T22:31:19.185Z,94527.66
2019-01-26T22:33:49.574Z,94524.13
2019-01-26T22:36:19.613Z,94522.44
2019-01-26T22:38:50.231Z,94516.98
2019-01-26T22:41:20.640Z,94514.78
2019-01-26T22:43:50.729Z,94516.59
2019-01-26T22:46:21.012Z,94509.19
2019-01-26T22:48:51.217Z,94505.55
2019-01-26T22:51:21.005Z,94505.86
2019-01-26T22:53:50.739Z,94496.95
2019-01-26T22:56:20.744Z,94494.88
2019-01-26T22:58:50.417Z,94494.17
2019-01-26T23:01:20.773Z,94493.66
2019-01-26T23:04:24.593Z,94495.95
2019-01-26T23:07:22.734Z,94484.63
2019-01-26T23:10:05.500Z,94477.33
2019-01-26T23:12:45.343Z,94476.01
2019-01-26T23:15:45.810Z,94468.81
2019-01-26T23:18:28.770Z,94457.25
2019-01-26T23:21:14.455Z,94450.22
2019-01-26T23:24:09.636Z,94446.98
2019-01-26T23:26:52.632Z,94444.05
2019-01-26T23:29:38.785Z,94444.23
2019-01-26T23:32:08.330Z,94430.37
2019-01-26T23:34:37.781Z,94435.46
2019-01-26T23:37:07.308Z,94425.39
2019-01-26T23:39:36.831Z,94416.24
2019-01-26T23:42:06.378Z,94420.77
2019-01-26T23:44:35.838Z,94421.20
2019-01-26T23:47:05.447Z,94404.34
2019-01-26T23:49:34.972Z,94400.39
2019-01-26T23:52:05.740Z,94397.33
2019-01-26T23:54:35.207Z,94391.00
2019-01-26T23:57:04.731Z,94389.63
2019-01-26T23:59:34.195Z,94383.14
